Time;durP1;ratioP1;P1;durP2;ratioP2;P2;SDS_P1;SDS_P2;PMS_P1;PMS_P2;Temp;Humidity;BMP_temperature;BMP_pressure;BME280_temperature;BME280_humidity;BME280_pressure;Samples;Min_cycle;Max_cycle;Signal;HPM_P1;HPM_P2
2024/01/23 00:03:05;;;;;;;1.85;0.70;;;;;;;17.80;47.21;97471.78;10368180;28;20034;-39
2024/01/23 00:08:05;;;;;;;4.00;1.00;;;;;;;17.82;48.00;97460.00;10367061;28;20636;-38
2024/01/23 00:13:08;;;;;;;3.35;1.35;;;;;;;17.80;47.60;97441.38;10366332;28;20037;-39
2024/01/23 00:18:08;;;;;;;2.78;1.10;;;;;;;17.79;48.07;97435.47;10367711;28;20486;-35
2024/01/23 00:23:08;;;;;;;1.30;0.77;;;;;;;17.80;48.26;97454.03;10365780;28;20041;-36
2024/01/23 00:28:09;;;;;;;4.00;1.17;;;;;;;17.79;48.59;97439.69;10366350;28;20061;-35
2024/01/23 00:33:10;;;;;;;3.72;1.23;;;;;;;17.80;49.00;97448.97;10366224;28;20288;-37
2024/01/23 00:38:11;;;;;;;2.88;1.08;;;;;;;17.80;49.12;97456.56;10366039;28;20038;-35
2024/01/23 00:43:12;;;;;;;2.92;0.80;;;;;;;17.81;48.83;97464.19;10364351;28;20037;-38
2024/01/23 00:48:12;;;;;;;1.90;0.80;;;;;;;17.80;48.71;97456.56;10363693;28;20413;-34
2024/01/23 00:53:12;;;;;;;2.57;0.90;;;;;;;17.80;48.40;97438.84;10364893;28;20041;-36
2024/01/23 00:58:14;;;;;;;2.23;1.83;;;;;;;17.80;48.84;97451.50;10364850;28;20087;-37
2024/01/23 01:03:15;;;;;;;2.00;0.95;;;;;;;17.78;48.78;97445.56;10364042;28;20034;-39
2024/01/23 01:08:15;;;;;;;2.38;1.20;;;;;;;17.74;48.81;97421.88;10363029;28;20041;-38
2024/01/23 01:13:16;;;;;;;2.07;0.90;;;;;;;17.74;48.54;97416.00;10361642;28;20061;-37
2024/01/23 01:18:16;;;;;;;2.92;0.77;;;;;;;17.76;48.58;97411.78;10365090;28;20038;-38
2024/01/23 01:23:17;;;;;;;2.63;0.70;;;;;;;17.74;48.43;97413.44;10363641;28;20041;-39
2024/01/23 01:28:19;;;;;;;4.18;0.80;;;;;;;17.77;47.96;97443.88;10363506;28;20103;-39
2024/01/23 01:33:19;;;;;;;3.42;0.98;;;;;;;17.78;48.65;97473.44;10363880;28;20034;-39
2024/01/23 01:38:20;;;;;;;2.23;1.10;;;;;;;17.77;48.17;97503.00;10363791;28;20034;-39
2024/01/23 01:43:26;;;;;;;2.37;0.83;;;;;;;17.77;48.19;97522.38;10363256;28;20043;-38
2024/01/23 01:48:27;;;;;;;4.30;0.90;;;;;;;17.78;48.36;97541.81;10360411;28;20285;-40
2024/01/23 01:53:27;;;;;;;2.33;1.13;;;;;;;17.77;47.80;97547.72;10362741;28;20409;-38
2024/01/23 01:58:30;;;;;;;2.30;0.73;;;;;;;17.76;48.05;97548.56;10362749;28;20376;-39
2024/01/23 02:03:30;;;;;;;4.88;0.80;;;;;;;17.79;48.40;97556.19;10363366;28;20037;-35
2024/01/23 02:08:34;;;;;;;4.53;1.20;;;;;;;17.78;48.34;97562.09;10362655;28;20041;-39
2024/01/23 02:13:35;;;;;;;1.67;0.80;;;;;;;17.76;48.26;97561.22;10361957;28;20044;-38
2024/01/23 02:18:35;;;;;;;4.45;1.02;;;;;;;17.77;48.18;97583.19;10363220;28;20100;-36
2024/01/23 02:23:36;;;;;;;2.43;0.90;;;;;;;17.77;48.51;97588.25;10361186;28;20046;-39
2024/01/23 02:28:36;;;;;;;2.80;0.80;;;;;;;17.77;48.33;97590.78;10362428;28;20954;-39
2024/01/23 02:33:36;;;;;;;2.73;1.20;;;;;;;17.73;48.25;97589.88;10362399;28;20624;-38
2024/01/23 02:38:37;;;;;;;2.58;0.85;;;;;;;17.77;48.26;97600.91;10361188;28;20022;-37
2024/01/23 02:43:37;;;;;;;0.97;0.60;;;;;;;17.74;48.27;97608.47;10361612;28;20041;-38
2024/01/23 02:48:37;;;;;;;1.70;0.63;;;;;;;17.76;48.16;97606.81;10362173;28;20121;-38
2024/01/23 02:53:38;;;;;;;1.77;0.70;;;;;;;17.76;48.18;97602.56;10360959;28;20311;-38
2024/01/23 02:58:40;;;;;;;1.60;0.57;;;;;;;17.74;48.33;97598.34;10357544;28;20445;-36
2024/01/23 03:03:40;;;;;;;1.45;0.73;;;;;;;17.76;47.97;97601.75;10361239;28;20045;-35
2024/01/23 03:08:41;;;;;;;3.97;0.80;;;;;;;17.77;47.92;97593.31;10364352;28;20574;-39
2024/01/23 03:13:41;;;;;;;1.43;0.70;;;;;;;17.75;48.53;97594.97;10367595;28;20030;-35
2024/01/23 03:18:42;;;;;;;3.13;0.90;;;;;;;17.74;47.79;97593.28;10367535;28;21278;-36
2024/01/23 03:23:42;;;;;;;1.77;0.73;;;;;;;17.75;47.75;97584.84;10368966;28;20482;-39
2024/01/23 03:28:43;;;;;;;1.83;0.43;;;;;;;17.75;48.03;97584.84;10368434;28;20116;-36
2024/01/23 03:33:45;;;;;;;0.80;0.60;;;;;;;17.75;47.72;97595.81;10368707;28;20092;-37
2024/01/23 03:38:46;;;;;;;3.40;0.98;;;;;;;17.74;47.66;97603.41;10367872;28;20022;-38
2024/01/23 03:43:46;;;;;;;1.25;0.93;;;;;;;17.74;47.79;97608.47;10367665;28;20036;-38
2024/01/23 03:48:46;;;;;;;1.70;0.60;;;;;;;17.75;47.76;97612.69;10368561;28;20033;-36
2024/01/23 03:53:47;;;;;;;1.93;0.63;;;;;;;17.75;47.82;97615.22;10382665;28;20033;-40
2024/01/23 03:58:47;;;;;;;1.23;0.70;;;;;;;17.75;47.82;97622.84;10366564;28;20088;-36
2024/01/23 04:03:48;;;;;;;1.63;0.65;;;;;;;17.75;47.90;97615.22;10367711;28;20030;-36
2024/01/23 04:08:49;;;;;;;1.03;0.47;;;;;;;17.71;47.65;97603.31;10367074;28;20456;-39
2024/01/23 04:13:49;;;;;;;1.67;0.70;;;;;;;17.74;48.02;97613.53;10366351;28;20037;-35
2024/01/23 04:18:54;;;;;;;2.30;0.70;;;;;;;17.74;47.65;97626.19;10367143;28;20045;-38
2024/01/23 04:23:54;;;;;;;1.13;0.57;;;;;;;17.75;47.67;97643.09;10366691;28;20300;-36
2024/01/23 04:28:55;;;;;;;2.67;0.63;;;;;;;17.74;47.47;97641.38;10366347;28;20034;-36
2024/01/23 04:33:55;;;;;;;1.03;0.43;;;;;;;17.74;47.83;97646.47;10366119;28;20042;-36
2024/01/23 04:38:55;;;;;;;2.73;0.50;;;;;;;17.76;47.63;97654.94;10366073;28;20500;-40
2024/01/23 04:43:56;;;;;;;0.73;0.50;;;;;;;17.75;48.17;97645.63;10365270;28;20548;-37
2024/01/23 04:48:56;;;;;;;2.23;0.60;;;;;;;17.77;46.98;97665.09;10365193;28;20494;-38
2024/01/23 04:53:57;;;;;;;2.05;1.20;;;;;;;17.74;47.83;97659.97;10365105;28;20726;-40
2024/01/23 04:58:57;;;;;;;2.17;0.77;;;;;;;17.79;46.92;97687.91;10363625;28;20092;-40
2024/01/23 05:03:57;;;;;;;0.83;0.60;;;;;;;17.84;47.04;97721.78;10363267;28;20516;-41
2024/01/23 05:08:58;;;;;;;1.23;0.57;;;;;;;17.83;47.01;97709.94;10365078;28;20034;-38
2024/01/23 05:13:58;;;;;;;1.17;0.60;;;;;;;17.86;46.73;97689.72;10363863;28;20041;-37
2024/01/23 05:18:58;;;;;;;1.77;0.63;;;;;;;17.86;46.67;97702.38;10364957;28;20033;-36
2024/01/23 05:24:02;;;;;;;1.00;0.67;;;;;;;17.86;46.45;97703.25;10362220;28;20041;-35
2024/01/23 05:29:02;;;;;;;2.22;0.70;;;;;;;17.87;46.51;97721.81;10363414;28;20572;-35
2024/01/23 05:34:02;;;;;;;1.47;0.73;;;;;;;17.84;47.72;97749.66;10363508;28;20048;-38
2024/01/23 05:39:04;;;;;;;2.80;0.90;;;;;;;17.84;46.76;97753.00;10362570;28;20056;-40
2024/01/23 05:44:04;;;;;;;2.42;0.60;;;;;;;17.83;46.78;97753.84;10360164;28;20545;-36
2024/01/23 05:49:05;;;;;;;5.57;0.60;;;;;;;17.72;47.20;97762.06;10357582;28;20061;-36
2024/01/23 05:54:05;;;;;;;5.40;1.42;;;;;;;17.83;46.86;97779.19;10363416;28;20469;-38
2024/01/23 05:59:06;;;;;;;3.50;0.90;;;;;;;17.84;46.35;97785.09;10362697;28;20041;-40
2024/01/23 06:04:08;;;;;;;2.80;0.88;;;;;;;17.86;46.14;97791.06;10362556;28;20045;-38
2024/01/23 06:09:10;;;;;;;10.25;1.40;;;;;;;17.88;46.29;97799.53;10361863;28;20073;-39
2024/01/23 06:14:10;;;;;;;6.20;1.30;;;;;;;17.82;45.87;97815.47;10360924;28;20048;-37
2024/01/23 06:19:11;;;;;;;17.80;1.43;;;;;;;17.81;47.28;97834.03;10362309;28;20041;-40
2024/01/23 06:24:11;;;;;;;8.63;0.97;;;;;;;17.84;45.36;97841.69;10361117;28;20555;-38
2024/01/23 06:29:11;;;;;;;4.63;1.10;;;;;;;17.86;45.11;97836.66;10360430;28;20045;-40
2024/01/23 06:34:12;;;;;;;5.47;1.30;;;;;;;17.52;45.20;97837.66;10361997;28;20128;-36
2024/01/23 06:39:12;;;;;;;8.13;2.00;;;;;;;17.63;45.29;97831.13;10360516;28;20041;-35
2024/01/23 06:44:13;;;;;;;6.15;1.98;;;;;;;17.69;45.27;97827.84;10360081;28;20045;-39
2024/01/23 06:49:13;;;;;;;5.90;1.43;;;;;;;17.69;45.21;97843.06;10362465;28;20034;-36
2024/01/23 06:54:13;;;;;;;5.20;1.20;;;;;;;17.70;45.29;97844.75;10361271;28;20049;-36
2024/01/23 06:59:15;;;;;;;3.73;1.20;;;;;;;17.69;45.98;97866.72;10360857;28;20522;-37
2024/01/23 07:04:15;;;;;;;7.85;1.52;;;;;;;17.71;44.89;97879.41;10361734;28;20045;-38
2024/01/23 07:09:16;;;;;;;1.53;1.20;;;;;;;17.70;45.44;97881.09;10360838;28;20044;-37
2024/01/23 07:14:16;;;;;;;3.30;0.90;;;;;;;17.69;45.11;97878.50;10360273;28;20117;-35
2024/01/23 07:19:17;;;;;;;2.77;1.10;;;;;;;17.71;45.09;97892.94;10361127;28;20030;-37
2024/01/23 07:24:17;;;;;;;2.37;1.23;;;;;;;17.70;44.95;97910.63;10360513;28;20646;-38
2024/01/23 07:29:17;;;;;;;4.33;1.00;;;;;;;17.71;44.58;97935.13;10359727;28;20037;-37
2024/01/23 07:34:18;;;;;;;3.07;1.00;;;;;;;17.71;45.38;97947.78;10360925;28;20284;-38
2024/01/23 07:39:21;;;;;;;3.80;2.20;;;;;;;17.71;45.01;97968.03;10360838;28;20037;-37
2024/01/23 07:44:22;;;;;;;2.63;1.10;;;;;;;17.71;44.68;97973.97;10359375;28;20038;-37
2024/01/23 07:49:23;;;;;;;3.47;1.77;;;;;;;17.71;45.12;97970.56;10357343;28;20077;-36
2024/01/23 07:54:23;;;;;;;5.07;1.83;;;;;;;17.68;44.65;97966.28;10360338;28;20053;-42
2024/01/23 07:59:23;;;;;;;4.23;0.80;;;;;;;17.67;44.43;97963.75;10367520;28;20033;-41
2024/01/23 08:04:24;;;;;;;1.57;0.80;;;;;;;17.67;44.47;97958.69;10368102;28;20103;-40
2024/01/23 08:09:24;;;;;;;1.97;0.90;;;;;;;17.67;44.30;97964.59;10367000;28;20057;-38
2024/01/23 08:14:24;;;;;;;2.13;0.90;;;;;;;17.67;44.30;97967.13;10366285;28;20030;-37
2024/01/23 08:19:25;;;;;;;3.47;1.00;;;;;;;17.67;44.05;97977.25;10366754;28;20780;-39
2024/01/23 08:24:25;;;;;;;2.08;0.60;;;;;;;17.69;44.94;97997.56;10366158;28;20026;-39
2024/01/23 08:29:26;;;;;;;1.27;1.00;;;;;;;17.68;44.20;97993.31;10366254;28;20104;-37
2024/01/23 08:34:26;;;;;;;4.33;1.00;;;;;;;17.66;44.16;98002.56;10365258;28;20046;-35
2024/01/23 08:39:26;;;;;;;2.40;0.77;;;;;;;17.66;44.40;98005.09;10366872;28;20045;-38
2024/01/23 08:44:28;;;;;;;1.87;0.70;;;;;;;17.63;44.09;97999.94;10365575;28;20029;-38
2024/01/23 08:49:28;;;;;;;0.98;0.77;;;;;;;17.67;44.11;98016.94;10362101;28;20449;-36
2024/01/23 08:54:29;;;;;;;1.33;0.70;;;;;;;17.67;43.99;98038.03;10365203;28;20099;-38
2024/01/23 08:59:29;;;;;;;1.87;1.13;;;;;;;17.67;44.18;98047.31;10365402;28;20113;-38
2024/01/23 09:04:29;;;;;;;1.08;0.80;;;;;;;17.68;44.22;98043.97;10364523;28;20467;-39
2024/01/23 09:09:30;;;;;;;1.23;0.63;;;;;;;17.65;44.16;98048.97;10363056;28;20030;-36
2024/01/23 09:14:33;;;;;;;0.77;0.50;;;;;;;17.65;44.43;98059.94;10364125;28;20087;-35
2024/01/23 09:19:33;;;;;;;2.28;0.63;;;;;;;17.68;44.12;98059.16;10363255;28;20018;-38
2024/01/23 09:24:33;;;;;;;1.17;0.70;;;;;;;17.67;44.69;98067.59;10364454;28;20038;-40
2024/01/23 09:29:34;;;;;;;2.53;0.97;;;;;;;17.64;44.09;98067.50;10364168;28;20586;-40
2024/01/23 09:34:36;;;;;;;1.20;0.70;;;;;;;17.66;44.27;98086.97;10363997;28;20413;-39
2024/01/23 09:39:36;;;;;;;1.90;0.82;;;;;;;17.64;43.95;98087.75;10363313;28;20524;-41
2024/01/23 09:44:39;;;;;;;2.13;0.67;;;;;;;17.67;44.26;98103.03;10362822;28;20041;-41
2024/01/23 09:49:43;;;;;;;1.13;0.93;;;;;;;17.66;44.30;98103.88;10364330;28;20041;-38
2024/01/23 09:54:43;;;;;;;1.98;0.68;;;;;;;17.65;44.46;98107.22;10362405;28;20756;-38
2024/01/23 09:59:44;;;;;;;3.00;0.57;;;;;;;17.67;44.00;98108.09;10362209;28;20026;-41
2024/01/23 10:04:46;;;;;;;1.80;0.70;;;;;;;17.65;44.31;98102.16;10362947;28;20619;-36
2024/01/23 10:09:49;;;;;;;1.33;0.60;;;;;;;17.66;44.32;98112.31;10362077;28;20288;-39
2024/01/23 10:14:50;;;;;;;0.98;0.30;;;;;;;17.66;44.40;98112.31;10361920;28;20535;-38
2024/01/23 10:19:51;;;;;;;1.33;0.63;;;;;;;17.66;44.65;98114.00;10361589;28;20030;-34
2024/01/23 10:24:51;;;;;;;1.08;0.60;;;;;;;17.64;44.12;98128.28;10362276;28;20029;-36
2024/01/23 10:29:52;;;;;;;1.27;0.57;;;;;;;17.61;43.58;98128.22;10357645;28;20034;-39
2024/01/23 10:34:54;;;;;;;1.77;0.70;;;;;;;17.63;43.65;98131.63;10357902;28;20040;-41
2024/01/23 10:39:55;;;;;;;0.70;0.70;;;;;;;17.63;43.73;98131.63;10360906;28;20041;-38
2024/01/23 10:44:58;;;;;;;1.27;0.85;;;;;;;17.66;43.86;98131.72;10361277;28;20033;-37
2024/01/23 10:49:58;;;;;;;0.90;0.52;;;;;;;17.67;44.07;98123.31;10361354;28;20406;-36
2024/01/23 10:55:03;;;;;;;0.97;0.40;;;;;;;17.72;44.44;98139.47;10361003;28;20037;-36
2024/01/23 11:00:05;;;;;;;1.75;0.60;;;;;;;17.73;44.38;98128.53;10360586;28;20033;-36
2024/01/23 11:05:06;;;;;;;0.88;0.50;;;;;;;17.73;44.02;98115.88;10360413;28;20394;-37
2024/01/23 11:10:22;;;;;;;0.90;0.50;;;;;;;17.71;44.41;98099.75;10361461;28;20045;-39
2024/01/23 11:15:23;;;;;;;1.08;0.57;;;;;;;17.70;43.99;98092.97;10360165;28;20034;-36
2024/01/23 11:20:23;;;;;;;1.30;0.50;;;;;;;17.72;43.92;98087.13;10360323;28;20394;-39
2024/01/23 11:25:24;;;;;;;2.77;0.80;;;;;;;17.65;44.08;98079.38;10356565;28;20148;-41
2024/01/23 11:30:24;;;;;;;1.40;0.50;;;;;;;17.75;44.35;98096.50;10364465;28;20128;-38
2024/01/23 11:35:24;;;;;;;1.10;0.70;;;;;;;17.77;44.39;98104.97;10368211;28;20371;-38
2024/01/23 11:40:34;;;;;;;1.03;0.43;;;;;;;17.79;44.58;98093.19;10367608;28;20667;-38
2024/01/23 11:45:37;;;;;;;1.98;0.70;;;;;;;17.79;44.64;98099.13;10366784;28;20037;-38
2024/01/23 11:50:41;;;;;;;1.05;0.57;;;;;;;17.81;44.52;98081.41;10366324;28;20042;-37
2024/01/23 11:55:43;;;;;;;1.42;0.60;;;;;;;17.81;44.32;98094.97;10368194;28;20052;-35
2024/01/23 12:00:43;;;;;;;1.42;0.57;;;;;;;17.81;44.03;98091.56;10366771;28;20498;-37
2024/01/23 12:05:44;;;;;;;2.00;0.53;;;;;;;17.79;44.15;98094.06;10366789;28;20030;-38
2024/01/23 12:10:44;;;;;;;1.57;0.70;;;;;;;17.74;43.94;98097.31;10367335;28;20068;-39
2024/01/23 12:15:44;;;;;;;1.83;0.77;;;;;;;17.79;44.10;98078.00;10365867;28;20449;-35
2024/01/23 12:20:54;;;;;;;0.83;0.50;;;;;;;17.80;44.08;98069.56;10366293;28;20303;-38
2024/01/23 12:25:55;;;;;;;1.60;0.77;;;;;;;17.79;43.81;98078.00;10366465;28;20088;-37
2024/01/23 12:30:56;;;;;;;3.22;0.80;;;;;;;17.74;43.50;98077.06;10365968;28;20068;-37
2024/01/23 12:36:01;;;;;;;2.08;0.77;;;;;;;17.77;43.37;98079.66;10365599;28;20040;-35
2024/01/23 12:41:02;;;;;;;1.40;0.80;;;;;;;17.75;43.40;98061.03;10364237;28;20029;-38
2024/01/23 12:46:02;;;;;;;1.27;0.50;;;;;;;17.75;43.37;98053.44;10365035;28;20096;-37
2024/01/23 12:51:03;;;;;;;5.10;0.80;;;;;;;17.77;43.20;98069.50;10363440;28;20045;-39
2024/01/23 12:56:04;;;;;;;1.02;0.60;;;;;;;17.78;43.09;98061.09;10362250;28;20336;-42
2024/01/23 13:01:04;;;;;;;1.08;0.68;;;;;;;17.80;43.07;98049.31;10365181;28;20089;-38
2024/01/23 13:06:05;;;;;;;2.90;0.73;;;;;;;17.82;42.96;98061.19;10364235;28;20041;-37
2024/01/23 13:11:05;;;;;;;1.17;0.50;;;;;;;17.83;43.49;98067.13;10364105;28;20046;-39
2024/01/23 13:16:09;;;;;;;2.10;0.73;;;;;;;17.83;43.57;98062.91;10364483;28;20497;-39
2024/01/23 13:21:09;;;;;;;2.92;0.68;;;;;;;17.81;44.45;98040.88;10363697;28;20289;-37
2024/01/23 13:26:11;;;;;;;1.97;0.90;;;;;;;17.83;43.57;98039.28;10363183;28;20061;-41
2024/01/23 13:31:12;;;;;;;3.42;1.08;;;;;;;17.81;43.73;98024.03;10364402;28;20116;-36
2024/01/23 13:36:13;;;;;;;1.48;0.70;;;;;;;17.82;43.58;98040.09;10362603;28;20386;-37
2024/01/23 13:41:14;;;;;;;2.80;1.40;;;;;;;17.82;43.80;98037.56;10363314;28;20033;-39
2024/01/23 13:46:14;;;;;;;1.55;0.60;;;;;;;17.82;44.31;98028.25;10363486;28;20494;-37
2024/01/23 13:51:15;;;;;;;3.25;1.02;;;;;;;17.82;47.46;98047.69;10360354;28;20034;-39
2024/01/23 13:56:15;;;;;;;4.20;0.77;;;;;;;17.82;44.35;98037.56;10362391;28;20044;-38
2024/01/23 14:01:15;;;;;;;1.57;0.73;;;;;;;17.82;45.77;98022.38;10363251;28;20285;-38
2024/01/23 14:06:16;;;;;;;3.67;0.87;;;;;;;17.82;43.93;98022.38;10362275;28;20037;-37
2024/01/23 14:11:16;;;;;;;10.67;1.10;;;;;;;17.80;45.27;98016.38;10361354;28;20132;-36
2024/01/23 14:16:17;;;;;;;3.00;0.65;;;;;;;17.78;44.62;98025.63;10362508;28;20633;-39
2024/01/23 14:21:17;;;;;;;4.82;1.48;;;;;;;17.80;45.73;98018.91;10361980;28;20034;-39
2024/01/23 14:26:17;;;;;;;3.03;0.82;;;;;;;17.74;46.92;98003.59;10361457;28;20490;-35
2024/01/23 14:31:18;;;;;;;6.03;0.97;;;;;;;17.71;47.53;98013.63;10362175;28;20041;-38
2024/01/23 14:36:18;;;;;;;2.80;1.10;;;;;;;17.69;47.90;98010.22;10360751;28;20390;-36
2024/01/23 14:41:19;;;;;;;4.70;0.93;;;;;;;17.68;47.50;97995.84;10360868;28;20045;-39
2024/01/23 14:46:19;;;;;;;5.00;1.13;;;;;;;17.69;48.19;98010.22;10362244;28;20048;-40
2024/01/23 14:51:19;;;;;;;7.87;1.20;;;;;;;17.67;48.34;98006.81;10360573;28;20363;-37
2024/01/23 14:56:20;;;;;;;1.90;0.63;;;;;;;17.67;47.57;98016.94;10359966;28;20042;-38
2024/01/23 15:01:20;;;;;;;8.18;1.00;;;;;;;17.66;48.72;98020.28;10361436;28;20038;-37
2024/01/23 15:06:21;;;;;;;8.40;0.80;;;;;;;17.67;48.20;98004.25;10366887;28;20041;-37
2024/01/23 15:11:21;;;;;;;5.57;1.87;;;;;;;17.66;49.15;98012.69;10368625;28;20041;-38
2024/01/23 15:16:22;;;;;;;3.93;1.27;;;;;;;17.63;49.41;98020.19;10369209;28;20983;-35
2024/01/23 15:21:23;;;;;;;4.28;0.93;;;;;;;17.61;50.54;98031.97;10368154;28;20350;-38
2024/01/23 15:26:24;;;;;;;4.65;0.98;;;;;;;17.56;51.44;98034.41;10368081;28;20041;-35
2024/01/23 15:31:24;;;;;;;5.72;1.90;;;;;;;17.40;46.01;98041.59;10361880;28;20125;-35
2024/01/23 15:36:25;;;;;;;2.73;1.37;;;;;;;17.50;48.65;98038.47;10367663;28;20041;-38
2024/01/23 15:41:25;;;;;;;4.83;1.63;;;;;;;17.46;50.92;98039.19;10367493;28;20033;-40
2024/01/23 15:46:26;;;;;;;4.45;1.15;;;;;;;17.46;50.46;98051.84;10368039;28;20042;-36
2024/01/23 15:51:26;;;;;;;2.27;1.00;;;;;;;17.47;50.17;98056.09;10367754;28;20665;-39
2024/01/23 15:56:29;;;;;;;4.33;1.70;;;;;;;17.40;50.36;98061.84;10366811;28;20300;-39
2024/01/23 16:01:29;;;;;;;3.75;1.00;;;;;;;17.39;50.14;98070.22;10367757;28;20033;-36
2024/01/23 16:06:30;;;;;;;4.60;2.15;;;;;;;17.39;50.14;98077.81;10367026;28;20044;-34
2024/01/23 16:11:30;;;;;;;5.97;1.17;;;;;;;17.36;50.02;98071.03;10366782;28;20030;-42
2024/01/23 16:16:30;;;;;;;1.87;0.70;;;;;;;17.40;48.86;98077.88;10366562;28;20103;-38
2024/01/23 16:21:31;;;;;;;5.13;1.10;;;;;;;17.40;49.97;98064.38;10366402;28;20034;-36
2024/01/23 16:26:31;;;;;;;3.53;1.07;;;;;;;17.39;49.75;98067.69;10366294;28;20061;-38
2024/01/23 16:31:31;;;;;;;3.53;1.02;;;;;;;17.38;49.57;98083.72;10366530;28;20301;-38
2024/01/23 16:36:32;;;;;;;6.20;1.57;;;;;;;17.36;47.91;98070.16;10365595;28;20050;-39
2024/01/23 16:41:33;;;;;;;8.38;1.27;;;;;;;17.44;48.22;98081.34;10365146;28;20033;-39
2024/01/23 16:46:35;;;;;;;2.85;0.98;;;;;;;17.38;50.07;98068.50;10365026;28;20116;-40
2024/01/23 16:51:35;;;;;;;5.40;1.33;;;;;;;17.38;50.45;98053.31;10364744;28;20041;-40
2024/01/23 16:56:35;;;;;;;10.70;2.22;;;;;;;17.29;48.78;98048.00;10364384;28;20449;-39
2024/01/23 17:01:36;;;;;;;7.97;1.97;;;;;;;17.38;50.79;98050.78;10364903;28;20442;-36
2024/01/23 17:06:36;;;;;;;7.30;2.03;;;;;;;17.37;51.36;98049.09;10363999;28;20059;-38
2024/01/23 17:11:36;;;;;;;9.87;1.97;;;;;;;17.34;51.17;98059.09;10363715;28;20038;-38
2024/01/23 17:16:37;;;;;;;5.03;1.60;;;;;;;17.36;51.27;98060.03;10364713;28;20053;-39
2024/01/23 17:21:37;;;;;;;7.05;1.98;;;;;;;17.36;50.75;98054.97;10363445;28;20038;-39
2024/01/23 17:26:38;;;;;;;4.13;1.17;;;;;;;17.44;49.70;98069.56;10361303;28;20456;-37
2024/01/23 17:31:38;;;;;;;7.93;1.90;;;;;;;17.45;48.82;98063.66;10363676;28;20522;-35
2024/01/23 17:36:39;;;;;;;4.07;1.40;;;;;;;17.51;48.67;98065.50;10363105;28;20698;-35
2024/01/23 17:41:42;;;;;;;5.37;1.50;;;;;;;17.51;48.45;98060.44;10362696;28;20494;-38
2024/01/23 17:46:44;;;;;;;5.35;1.60;;;;;;;17.54;48.97;98052.91;10359075;28;20418;-37
2024/01/23 17:51:44;;;;;;;5.90;1.67;;;;;;;17.50;49.19;98058.72;10354536;28;20731;-34
2024/01/23 17:56:47;;;;;;;3.43;1.10;;;;;;;17.50;49.40;98049.44;10355581;28;20034;-38
2024/01/23 18:01:48;;;;;;;5.32;1.45;;;;;;;17.49;49.61;98049.41;10359272;28;20029;-35
2024/01/23 18:06:48;;;;;;;2.60;1.38;;;;;;;17.47;49.43;98043.44;10356478;28;20042;-38
2024/01/23 18:11:51;;;;;;;5.22;1.30;;;;;;;17.45;49.93;98040.00;10357990;28;20030;-37
2024/01/23 18:16:51;;;;;;;5.85;2.63;;;;;;;17.49;49.51;98026.63;10351944;28;20036;-38
2024/01/23 18:21:52;;;;;;;5.13;1.30;;;;;;;17.44;49.85;98039.16;10354701;28;20878;-35
2024/01/23 18:26:52;;;;;;;2.70;1.17;;;;;;;17.46;49.43;98031.59;10344758;28;20033;-39
2024/01/23 18:31:52;;;;;;;4.27;1.40;;;;;;;17.43;49.92;98023.94;10353670;28;20036;-35
2024/01/23 18:36:53;;;;;;;6.43;1.70;;;;;;;17.42;49.47;98012.09;10357475;28;20034;-37
2024/01/23 18:41:53;;;;;;;8.97;1.67;;;;;;;17.53;49.02;98005.59;10359992;28;20032;-39
2024/01/23 18:46:53;;;;;;;8.57;2.00;;;;;;;17.44;49.84;98012.97;10361626;28;20029;-37
2024/01/23 18:51:54;;;;;;;7.40;1.33;;;;;;;17.60;46.67;97974.56;10360862;28;20593;-36
2024/01/23 18:56:54;;;;;;;6.63;0.90;;;;;;;17.67;46.39;97971.34;10360536;28;20069;-40
2024/01/23 19:01:54;;;;;;;5.73;0.93;;;;;;;17.71;46.23;97968.03;10361608;28;20038;-37
2024/01/23 19:06:55;;;;;;;3.13;1.00;;;;;;;17.74;46.34;97932.66;10360317;28;20042;-39
2024/01/23 19:11:55;;;;;;;3.97;1.30;;;;;;;17.73;46.70;97895.50;10358265;28;20498;-37
2024/01/23 19:16:55;;;;;;;5.13;1.40;;;;;;;17.75;46.87;97902.28;10357407;28;20040;-38
2024/01/23 19:21:56;;;;;;;2.63;0.93;;;;;;;17.77;46.39;97907.41;10358679;28;20303;-35
2024/01/23 19:26:59;;;;;;;3.20;1.17;;;;;;;17.76;46.62;97890.50;10358297;28;20038;-40
2024/01/23 19:31:59;;;;;;;2.78;1.15;;;;;;;17.78;47.56;97873.63;10359369;28;20680;-35
2024/01/23 19:37:00;;;;;;;3.20;1.40;;;;;;;17.79;47.15;97881.28;10359867;28;20108;-38
2024/01/23 19:42:01;;;;;;;2.05;1.30;;;;;;;17.81;46.94;97914.22;10357163;28;20297;-36
2024/01/23 19:47:01;;;;;;;1.87;1.10;;;;;;;17.80;47.91;97917.59;10359059;28;20038;-38
2024/01/23 19:52:01;;;;;;;3.57;1.47;;;;;;;17.77;47.32;97927.66;10363127;28;20038;-39
2024/01/23 19:57:02;;;;;;;3.33;1.40;;;;;;;17.81;46.65;97925.22;10364649;28;20289;-38
2024/01/23 20:02:03;;;;;;;2.30;1.30;;;;;;;17.84;46.65;97916.84;10367250;28;20022;-38
2024/01/23 20:07:03;;;;;;;4.40;1.10;;;;;;;17.84;46.63;97911.78;10365812;28;20034;-36
2024/01/23 20:12:04;;;;;;;2.88;1.20;;;;;;;17.87;46.11;97916.91;10365741;28;20729;-38
2024/01/23 20:17:04;;;;;;;4.32;1.40;;;;;;;17.88;46.63;97909.34;10367092;28;20037;-40
2024/01/23 20:22:04;;;;;;;8.00;1.70;;;;;;;17.87;48.95;97900.03;10365447;28;20042;-35
2024/01/23 20:27:05;;;;;;;4.00;1.40;;;;;;;17.81;47.92;97899.03;10366001;28;20112;-38
2024/01/23 20:32:06;;;;;;;5.50;1.53;;;;;;;17.75;48.82;97888.78;10366193;28;20062;-39
2024/01/23 20:37:06;;;;;;;4.63;1.55;;;;;;;17.73;51.27;97882.84;10364688;28;20038;-35
2024/01/23 20:42:11;;;;;;;3.77;1.17;;;;;;;17.72;52.18;97893.75;10365350;28;20632;-37
2024/01/23 20:47:13;;;;;;;5.57;1.20;;;;;;;17.69;52.10;97878.50;10365914;28;20034;-36
2024/01/23 20:52:14;;;;;;;4.47;1.48;;;;;;;17.72;51.95;97891.22;10364694;28;20091;-34
2024/01/23 20:57:14;;;;;;;4.27;1.13;;;;;;;17.72;52.54;97881.09;10362685;28;20030;-38
2024/01/23 21:02:14;;;;;;;7.10;1.27;;;;;;;17.72;52.53;97889.56;10361811;28;20033;-39
2024/01/23 21:07:15;;;;;;;4.80;0.97;;;;;;;17.71;52.45;97876.84;10362620;28;20100;-40
2024/01/23 21:12:15;;;;;;;3.07;1.20;;;;;;;17.74;52.90;97887.06;10363739;28;20044;-40
2024/01/23 21:17:16;;;;;;;5.88;2.45;;;;;;;17.74;53.15;97874.41;10364880;28;20284;-37
2024/01/23 21:22:17;;;;;;;7.35;1.52;;;;;;;17.74;52.77;97872.72;10363030;28;20052;-38
2024/01/23 21:27:18;;;;;;;4.10;1.30;;;;;;;17.73;52.77;97875.25;10362943;28;20069;-37
2024/01/23 21:32:18;;;;;;;7.22;1.73;;;;;;;17.73;52.94;97870.19;10364219;28;20046;-39
2024/01/23 21:37:18;;;;;;;5.25;1.25;;;;;;;17.72;53.56;97868.44;10363279;28;20041;-37
2024/01/23 21:42:19;;;;;;;3.60;1.30;;;;;;;17.69;52.84;97874.31;10362566;28;20037;-38
2024/01/23 21:47:20;;;;;;;6.88;1.70;;;;;;;17.70;53.29;97870.09;10359428;28;20038;-38
2024/01/23 21:52:20;;;;;;;4.40;1.33;;;;;;;17.67;52.57;97857.38;10362285;28;20034;-36
2024/01/23 21:57:21;;;;;;;3.22;1.25;;;;;;;17.67;52.33;97859.91;10362564;28;20048;-40
2024/01/23 22:02:21;;;;;;;5.90;1.30;;;;;;;17.67;51.96;97875.09;10362556;28;20040;-35
2024/01/23 22:07:21;;;;;;;3.33;1.63;;;;;;;17.67;52.29;97840.47;10362188;28;20771;-36
2024/01/23 22:12:22;;;;;;;2.77;1.10;;;;;;;17.69;51.97;97825.31;10361454;28;20088;-37
2024/01/23 22:17:22;;;;;;;3.30;1.23;;;;;;;17.68;52.08;97831.22;10362578;28;20033;-37
2024/01/23 22:22:23;;;;;;;4.37;1.10;;;;;;;17.66;52.27;97830.34;10360976;28;20297;-38
2024/01/23 22:27:23;;;;;;;3.15;1.20;;;;;;;17.68;51.89;97856.53;10361197;28;20398;-39
2024/01/23 22:32:25;;;;;;;4.38;1.13;;;;;;;17.66;51.71;97831.19;10361735;28;20437;-37
2024/01/23 22:37:26;;;;;;;4.75;1.17;;;;;;;17.71;51.53;97836.34;10357298;28;20038;-39
2024/01/23 22:42:26;;;;;;;3.47;0.87;;;;;;;17.70;51.52;97809.31;10360642;28;20406;-37
2024/01/23 22:47:26;;;;;;;5.57;1.10;;;;;;;17.64;51.11;97792.31;10361562;28;20032;-36
2024/01/23 22:52:27;;;;;;;1.70;0.80;;;;;;;17.68;51.22;97800.81;10360567;28;20643;-39
2024/01/23 22:57:28;;;;;;;2.10;1.00;;;;;;;17.66;51.73;97788.13;10360381;28;20036;-38
2024/01/23 23:02:28;;;;;;;4.93;1.40;;;;;;;17.66;50.82;97789.81;10361040;28;20108;-35
2024/01/23 23:07:28;;;;;;;3.80;1.17;;;;;;;17.69;50.50;97822.78;10360737;28;20405;-37
2024/01/23 23:12:29;;;;;;;2.37;1.13;;;;;;;17.70;50.54;97805.09;10360064;28;20033;-37
2024/01/23 23:17:31;;;;;;;4.47;1.20;;;;;;;17.69;50.46;97777.22;10361322;28;20118;-39